createdAt,value
2019-03-10T00:01:16.945Z,62.40
2019-03-10T00:04:14.078Z,62.70
2019-03-10T00:06:48.684Z,63.60
2019-03-10T00:09:53.537Z,62.70
2019-03-10T00:12:28.596Z,61.70
2019-03-10T00:15:00.507Z,61.80
2019-03-10T00:17:31.992Z,61.70
2019-03-10T00:20:05.419Z,63.00
2019-03-10T00:23:30.162Z,62.50
2019-03-10T00:26:04.670Z,61.70
2019-03-10T00:29:24.452Z,60.40
2019-03-10T00:31:14.552Z,61.00
2019-03-10T00:33:51.637Z,60.50
2019-03-10T00:36:31.549Z,60.10
2019-03-10T00:39:59.787Z,61.00
2019-03-10T00:42:48.348Z,61.30
2019-03-10T00:48:53.208Z,61.50
2019-03-10T00:54:40.252Z,60.30
2019-03-10T00:57:57.937Z,60.80
2019-03-10T01:00:34.875Z,60.10
2019-03-10T01:03:05.584Z,59.00
2019-03-10T01:05:40.742Z,59.00
2019-03-10T01:08:11.554Z,58.60
2019-03-10T01:11:22.097Z,59.00
2019-03-10T01:13:55.015Z,59.10
2019-03-10T01:16:33.259Z,59.40
2019-03-10T01:19:07.868Z,59.90
2019-03-10T01:21:42.813Z,59.20
2019-03-10T01:24:14.617Z,58.90
2019-03-10T01:26:53.208Z,59.10
2019-03-10T01:29:24.384Z,58.60
2019-03-10T01:32:46.110Z,58.50
2019-03-10T01:35:23.143Z,58.80
2019-03-10T01:37:57.154Z,59.00
2019-03-10T01:40:30.773Z,59.00
2019-03-10T01:43:05.874Z,59.00
2019-03-10T01:45:38.830Z,58.30
2019-03-10T01:48:08.535Z,58.60
2019-03-10T01:51:34.623Z,59.10
2019-03-10T01:54:07.429Z,58.80
2019-03-10T02:03:04.639Z,59.30
2019-03-10T02:09:49.868Z,59.20
2019-03-10T02:12:23.188Z,59.00
2019-03-10T02:15:40.836Z,58.00
2019-03-10T02:18:15.304Z,57.70
2019-03-10T02:20:47.697Z,57.50
2019-03-10T02:23:52.203Z,58.50
2019-03-10T02:26:24.266Z,58.80
2019-03-10T02:28:56.967Z,60.10
2019-03-10T02:31:31.413Z,58.10
2019-03-10T02:34:05.015Z,60.40
2019-03-10T02:36:40.877Z,58.40
2019-03-10T02:42:04.398Z,59.20
2019-03-10T02:44:35.164Z,59.20
2019-03-10T02:47:54.904Z,59.20
2019-03-10T02:50:28.722Z,59.20
2019-03-10T02:53:02.521Z,59.30
2019-03-10T02:55:42.587Z,59.80
2019-03-10T02:58:11.421Z,61.60
2019-03-10T03:00:45.833Z,62.00
2019-03-10T03:03:18.292Z,63.00
2019-03-10T03:05:50.584Z,64.40
2019-03-10T03:09:06.501Z,64.20
2019-03-10T03:11:39.099Z,64.80
2019-03-10T03:14:11.908Z,66.50
2019-03-10T03:16:43.942Z,66.90
2019-03-10T03:19:17.059Z,66.90
2019-03-10T03:22:02.712Z,66.20
2019-03-10T03:24:35.070Z,66.50
2019-03-10T03:29:58.092Z,67.90
2019-03-10T03:35:46.391Z,68.70
2019-03-10T03:41:28.997Z,69.20
2019-03-10T03:44:31.832Z,69.20
2019-03-10T03:47:03.755Z,72.30
2019-03-10T03:49:36.390Z,72.80
2019-03-10T03:52:14.315Z,71.60
2019-03-10T03:54:47.407Z,71.10
2019-03-10T03:57:19.381Z,70.70
2019-03-10T03:59:51.968Z,69.80
2019-03-10T04:02:26.433Z,70.10
2019-03-10T04:05:22.197Z,70.60
2019-03-10T04:07:53.215Z,71.40
2019-03-10T04:10:24.271Z,71.50
2019-03-10T04:13:36.465Z,71.90
2019-03-10T04:16:13.528Z,71.90
2019-03-10T04:18:44.395Z,72.60
2019-03-10T04:21:23.563Z,72.60
2019-03-10T04:23:56.454Z,74.20
2019-03-10T04:27:13.725Z,74.00
2019-03-10T04:29:43.991Z,71.90
2019-03-10T04:35:07.744Z,71.00
2019-03-10T04:37:40.205Z,71.70
2019-03-10T04:40:52.415Z,72.50
2019-03-10T04:43:27.033Z,73.30
2019-03-10T04:45:56.880Z,73.00
2019-03-10T04:49:14.817Z,76.30
2019-03-10T04:51:44.373Z,75.50
2019-03-10T04:57:01.676Z,74.50
2019-03-10T04:59:31.854Z,74.70
2019-03-10T05:02:10.401Z,76.10
2019-03-10T05:04:42.811Z,76.90
2019-03-10T05:07:13.420Z,75.30
2019-03-10T05:10:26.520Z,75.70
2019-03-10T05:13:00.165Z,73.30
2019-03-10T05:15:32.547Z,72.90
2019-03-10T05:18:09.852Z,74.10
2019-03-10T05:20:44.028Z,73.00
2019-03-10T05:26:21.476Z,74.00
2019-03-10T05:29:34.937Z,71.60
2019-03-10T05:32:09.484Z,73.10
2019-03-10T05:34:41.353Z,72.60
2019-03-10T05:37:16.799Z,73.10
2019-03-10T05:39:47.646Z,72.60
2019-03-10T05:42:54.841Z,72.80
2019-03-10T05:45:25.581Z,74.10
2019-03-10T05:47:58.370Z,74.40
2019-03-10T05:51:12.753Z,74.50
2019-03-10T05:53:41.720Z,75.20
2019-03-10T05:56:10.578Z,75.70
2019-03-10T05:58:45.586Z,76.30
2019-03-10T06:01:14.569Z,81.00
2019-03-10T06:04:10.854Z,84.60
2019-03-10T06:06:39.669Z,86.10
2019-03-10T06:09:10.266Z,89.30
2019-03-10T06:12:15.834Z,88.50
2019-03-10T06:14:44.711Z,89.30
2019-03-10T06:17:56.981Z,92.40
2019-03-10T06:20:26.161Z,93.10
2019-03-10T06:22:55.174Z,93.70
2019-03-10T06:25:24.374Z,94.60
2019-03-10T06:27:54.863Z,96.40
2019-03-10T06:31:08.854Z,97.70
2019-03-10T06:33:37.647Z,99.00
2019-03-10T06:36:48.740Z,99.50
2019-03-10T06:39:17.752Z,99.90
2019-03-10T06:41:46.709Z,99.90
2019-03-10T06:45:07.093Z,99.90
2019-03-10T06:47:35.987Z,99.90
2019-03-10T06:50:38.221Z,99.90
2019-03-10T06:53:07.071Z,99.90
2019-03-10T06:56:15.261Z,99.90
2019-03-10T06:58:44.343Z,99.90
2019-03-10T07:01:13.451Z,95.70
2019-03-10T07:04:15.556Z,93.60
2019-03-10T07:06:46.923Z,95.20
2019-03-10T07:09:51.721Z,93.20
2019-03-10T07:12:21.554Z,91.90
2019-03-10T07:14:53.967Z,91.20
2019-03-10T07:17:37.202Z,91.00
2019-03-10T07:20:09.326Z,90.20
2019-03-10T07:23:18.607Z,90.20
2019-03-10T07:26:11.709Z,89.40
2019-03-10T07:29:07.275Z,90.00
2019-03-10T07:31:38.331Z,89.80
2019-03-10T07:35:04.076Z,90.80
2019-03-10T07:37:52.321Z,90.20
2019-03-10T07:43:34.273Z,88.30
2019-03-10T07:46:06.830Z,89.90
2019-03-10T07:48:48.796Z,89.80
2019-03-10T07:51:23.182Z,90.10
2019-03-10T07:57:07.003Z,92.80
2019-03-10T08:00:30.102Z,91.70
2019-03-10T08:03:36.233Z,93.60
2019-03-10T08:06:10.806Z,96.60
2019-03-10T08:09:03.903Z,98.50
2019-03-10T08:14:51.694Z,96.40
2019-03-10T08:20:25.425Z,93.50
2019-03-10T08:23:54.419Z,94.10
2019-03-10T08:26:35.200Z,94.40
2019-03-10T08:29:46.204Z,94.80
2019-03-10T08:32:24.274Z,93.30
2019-03-10T08:35:24.000Z,92.60
2019-03-10T08:38:02.160Z,91.80
2019-03-10T08:41:25.552Z,93.40
2019-03-10T08:44:12.752Z,93.20
2019-03-10T08:46:57.408Z,96.10
2019-03-10T08:49:30.786Z,96.10
2019-03-10T08:52:04.124Z,94.10
2019-03-10T08:54:37.200Z,95.70
2019-03-10T08:57:12.141Z,94.70
2019-03-10T09:00:37.385Z,92.80
2019-03-10T09:03:18.455Z,92.10
2019-03-10T09:06:01.344Z,91.00
2019-03-10T09:08:51.591Z,90.60
2019-03-10T09:11:44.776Z,90.40
2019-03-10T09:14:32.468Z,88.10
2019-03-10T09:17:59.906Z,84.50
2019-03-10T09:20:41.271Z,83.50
2019-03-10T09:23:28.989Z,83.90
2019-03-10T09:26:20.399Z,83.20
2019-03-10T09:32:10.592Z,80.20
2019-03-10T09:37:36.927Z,80.80
2019-03-10T09:40:44.344Z,77.80
2019-03-10T09:43:28.739Z,75.50
2019-03-10T09:46:33.343Z,72.20
2019-03-10T09:49:05.367Z,72.80
2019-03-10T09:52:14.142Z,69.10
2019-03-10T09:55:05.195Z,71.40
2019-03-10T09:58:31.193Z,72.40
2019-03-10T10:01:15.749Z,71.40
2019-03-10T10:04:41.136Z,69.70
2019-03-10T10:07:12.765Z,71.60
2019-03-10T10:10:31.464Z,69.20
2019-03-10T10:13:12.559Z,66.60
2019-03-10T10:16:10.956Z,67.10
2019-03-10T10:18:50.871Z,70.90
2019-03-10T10:22:02.339Z,67.00
2019-03-10T10:24:42.537Z,65.90
2019-03-10T10:27:26.031Z,62.80
2019-03-10T10:29:56.531Z,62.10
2019-03-10T10:32:34.960Z,63.80
2019-03-10T10:35:13.246Z,63.30
2019-03-10T10:40:29.970Z,62.00
2019-03-10T10:43:04.456Z,61.60
2019-03-10T10:46:12.035Z,63.80
2019-03-10T10:48:44.987Z,59.80
2019-03-10T10:54:19.420Z,59.60
2019-03-10T10:57:41.062Z,58.80
2019-03-10T11:00:29.427Z,57.10
2019-03-10T11:03:32.515Z,56.50
2019-03-10T11:06:09.455Z,55.70
2019-03-10T11:11:45.494Z,55.00
2019-03-10T11:15:11.500Z,54.30
2019-03-10T11:17:50.738Z,54.90
2019-03-10T11:21:09.197Z,55.10
2019-03-10T11:23:39.646Z,57.20
2019-03-10T11:27:06.100Z,56.60
2019-03-10T11:29:40.641Z,57.20
2019-03-10T11:32:14.125Z,59.10
2019-03-10T11:34:47.192Z,59.40
2019-03-10T11:37:32.997Z,60.50
2019-03-10T11:40:03.773Z,60.30
2019-03-10T11:42:44.585Z,59.80
2019-03-10T11:45:35.699Z,59.80
2019-03-10T11:48:10.407Z,58.90
2019-03-10T11:50:50.214Z,58.70
2019-03-10T11:53:28.601Z,58.30
2019-03-10T11:56:01.719Z,62.60
2019-03-10T11:58:38.790Z,61.10
2019-03-10T12:01:26.667Z,64.20
2019-03-10T12:03:57.709Z,62.80
2019-03-10T12:06:34.198Z,61.30
2019-03-10T12:09:07.392Z,60.10
2019-03-10T12:11:36.627Z,59.20
2019-03-10T12:14:05.545Z,59.20
2019-03-10T12:16:34.417Z,59.30
2019-03-10T12:19:04.331Z,58.50
2019-03-10T12:21:49.870Z,57.00
2019-03-10T12:24:21.800Z,56.40
2019-03-10T12:26:51.045Z,56.40
2019-03-10T12:29:24.361Z,56.70
2019-03-10T12:31:59.684Z,55.80
2019-03-10T12:34:31.924Z,55.30
2019-03-10T12:37:01.327Z,55.00
2019-03-10T12:39:32.607Z,54.80
2019-03-10T12:42:03.352Z,53.60
2019-03-10T12:45:01.128Z,52.10
2019-03-10T12:47:40.188Z,53.90
2019-03-10T12:50:15.679Z,54.30
2019-03-10T12:52:48.146Z,53.80
2019-03-10T12:55:21.559Z,54.00
2019-03-10T12:58:05.193Z,53.20
2019-03-10T13:00:28.186Z,53.70
2019-03-10T13:03:02.585Z,52.90
2019-03-10T13:05:33.021Z,52.40
2019-03-10T13:08:11.095Z,54.80
2019-03-10T13:10:46.215Z,52.10
2019-03-10T13:13:22.473Z,52.30
2019-03-10T13:15:58.712Z,52.70
2019-03-10T13:18:28.942Z,53.50
2019-03-10T13:21:06.620Z,53.40
2019-03-10T13:23:37.366Z,52.10
2019-03-10T13:26:08.524Z,52.30
2019-03-10T13:28:44.621Z,51.60
2019-03-10T13:31:15.150Z,51.00
2019-03-10T13:33:45.771Z,51.40
2019-03-10T13:36:17.331Z,51.60
2019-03-10T13:38:47.894Z,52.50
2019-03-10T13:41:18.565Z,51.80
2019-03-10T13:43:51.330Z,51.90
2019-03-10T13:46:24.029Z,51.80
2019-03-10T13:48:57.369Z,52.80
2019-03-10T13:51:29.078Z,51.80
2019-03-10T13:54:03.593Z,51.00
2019-03-10T13:56:36.614Z,51.30
2019-03-10T13:59:16.388Z,51.60
2019-03-10T14:02:03.094Z,51.70
2019-03-10T14:04:38.257Z,51.80
2019-03-10T14:07:11.654Z,53.30
2019-03-10T14:09:50.310Z,56.40
2019-03-10T14:12:24.694Z,57.90
2019-03-10T14:15:02.281Z,56.80
2019-03-10T14:17:33.770Z,57.40
2019-03-10T14:20:04.231Z,57.40
2019-03-10T14:22:33.714Z,56.50
2019-03-10T14:25:54.780Z,56.10
2019-03-10T14:28:23.804Z,56.00
2019-03-10T14:31:27.501Z,56.20
2019-03-10T14:34:03.874Z,57.20
2019-03-10T14:37:03.157Z,56.60
2019-03-10T14:39:35.445Z,55.30
2019-03-10T14:42:39.365Z,54.90
2019-03-10T14:45:16.697Z,54.00
2019-03-10T14:48:22.240Z,54.90
2019-03-10T14:50:53.887Z,54.50
2019-03-10T14:53:47.736Z,53.90
2019-03-10T14:56:21.758Z,56.70
2019-03-10T14:59:36.189Z,59.80
2019-03-10T15:02:15.026Z,60.00
2019-03-10T15:05:28.715Z,61.20
2019-03-10T15:08:11.094Z,61.70
2019-03-10T15:10:40.145Z,60.20
2019-03-10T15:13:13.367Z,63.20
2019-03-10T15:16:22.482Z,95.20
2019-03-10T15:18:53.050Z,99.90
2019-03-10T15:22:14.422Z,99.90
2019-03-10T15:24:48.298Z,99.90
2019-03-10T15:27:48.395Z,99.90
2019-03-10T15:30:23.359Z,96.40
2019-03-10T15:35:53.082Z,99.40
2019-03-10T15:38:23.994Z,99.10
2019-03-10T15:41:26.159Z,97.40
2019-03-10T15:43:53.439Z,99.90
2019-03-10T15:46:58.752Z,94.40
2019-03-10T15:49:43.215Z,98.90
2019-03-10T15:53:01.434Z,95.80
2019-03-10T15:55:42.437Z,95.40
2019-03-10T15:58:43.402Z,90.90
2019-03-10T16:01:12.969Z,90.20
2019-03-10T16:04:32.753Z,93.60
2019-03-10T16:07:16.256Z,89.40
2019-03-10T16:20:36.890Z,90.90
2019-03-10T16:23:11.259Z,89.10
2019-03-10T16:28:54.101Z,90.10
2019-03-10T16:34:15.319Z,93.00
2019-03-10T16:36:52.990Z,97.60
2019-03-10T16:39:29.976Z,92.30
2019-03-10T16:42:00.010Z,91.20
2019-03-10T16:45:03.202Z,90.70
2019-03-10T20:33:22.169Z,71.40
2019-03-10T20:35:56.973Z,72.90
2019-03-10T20:38:26.326Z,83.60
2019-03-10T20:41:05.638Z,93.80
2019-03-10T20:43:44.197Z,93.60
2019-03-10T20:46:22.846Z,90.20
2019-03-10T20:49:00.968Z,87.90
2019-03-10T20:51:41.203Z,90.40
2019-03-10T20:54:32.204Z,95.40
2019-03-10T20:57:01.727Z,91.30
2019-03-10T20:59:36.942Z,95.60
2019-03-10T21:02:13.079Z,92.50
2019-03-10T21:04:47.408Z,92.30
2019-03-10T21:07:24.702Z,90.20
2019-03-10T21:10:03.090Z,90.60
2019-03-10T21:12:43.234Z,92.10
2019-03-10T21:15:35.511Z,90.00
2019-03-10T21:18:06.285Z,90.60
2019-03-10T21:20:36.319Z,86.40
2019-03-10T21:23:09.644Z,86.20
2019-03-10T21:25:50.102Z,83.90
2019-03-10T21:28:21.219Z,80.80
2019-03-10T21:30:52.137Z,85.00
2019-03-10T21:33:23.794Z,88.40
2019-03-10T21:36:02.168Z,82.60
2019-03-10T21:38:34.743Z,87.70
2019-03-10T21:41:13.681Z,84.90
2019-03-10T21:43:38.489Z,80.20
2019-03-10T21:46:09.076Z,79.50
2019-03-10T21:48:42.824Z,83.70
2019-03-10T21:51:33.746Z,82.10
2019-03-10T21:53:56.545Z,87.70
2019-03-10T21:56:26.045Z,83.40
2019-03-10T21:59:02.204Z,81.40
2019-03-10T22:01:37.534Z,77.10
2019-03-10T22:04:11.822Z,77.10
2019-03-10T22:06:44.085Z,79.10
2019-03-10T22:09:17.146Z,78.50
2019-03-10T22:11:49.477Z,79.90
2019-03-10T22:14:19.795Z,79.00
2019-03-10T22:16:55.324Z,79.70
2019-03-10T22:19:31.293Z,79.10
2019-03-10T22:22:09.570Z,82.20
2019-03-10T22:24:41.656Z,75.30
2019-03-10T22:27:18.214Z,78.00
2019-03-10T22:29:52.334Z,76.20
2019-03-10T22:32:25.849Z,80.30
2019-03-10T22:34:55.089Z,80.60
2019-03-10T22:37:24.259Z,76.10
2019-03-10T22:39:53.340Z,75.60
2019-03-10T22:42:23.757Z,77.60
2019-03-10T22:44:53.192Z,76.60
2019-03-10T22:47:22.317Z,75.40
2019-03-10T22:49:57.233Z,80.20
2019-03-10T22:52:26.391Z,76.00
2019-03-10T22:54:57.078Z,73.50
2019-03-10T22:57:29.544Z,79.10
2019-03-10T23:00:00.939Z,78.70
2019-03-10T23:02:34.750Z,75.90
2019-03-10T23:05:07.207Z,85.90
2019-03-10T23:07:38.595Z,76.40
2019-03-10T23:10:13.549Z,73.50
2019-03-10T23:12:47.357Z,71.40
2019-03-10T23:15:20.803Z,74.40
2019-03-10T23:17:55.460Z,77.40
2019-03-10T23:20:27.360Z,73.10
2019-03-10T23:22:57.171Z,71.40
2019-03-10T23:25:33.727Z,71.80
2019-03-10T23:28:05.540Z,72.40
2019-03-10T23:30:35.193Z,74.00
2019-03-10T23:33:07.956Z,79.30
2019-03-10T23:35:36.931Z,78.50
2019-03-10T23:38:12.188Z,79.90
2019-03-10T23:40:43.029Z,76.20
2019-03-10T23:43:16.859Z,72.40
2019-03-10T23:45:49.300Z,70.70
2019-03-10T23:48:22.719Z,71.50
2019-03-10T23:50:53.179Z,77.30
2019-03-10T23:53:29.175Z,75.80
2019-03-10T23:56:03.421Z,77.60
2019-03-10T23:58:38.346Z,73.40
